MMHO

Details ICAO MMHO (HMO)
Name General Ignacio P Garcia International
Region Mexico
Timezone America/Hermosillo (UTC-7.0)
Plans Departing 75
Arriving 95
Stats Elevation 627 ft / 191 m (AMSL)
Location 29.093400° -111.052000°
Runways 1
Magnetic Variation 9.312° E
Sunrise 2018-12-16 14:12:30 UTC / 2018-12-16 07:12:30 Local
Sunset 2018-12-17 00:29:59 UTC / 2018-12-16 17:29:59 Local
Advertisement - Login to hide

Runways

ID Width Length Bearing (true/mag) Surface Threshold Overrun Markings Lighting
05 148 ft / 45 m 7,554 ft / 2,302 m 58.64° / 49.33° ASPHALT 0 ft / 0 m 184 ft / 56 m PREC-APP EDGE THRESHOLD REIL-OMNI
23 148 ft / 45 m 7,554 ft / 2,302 m 238.65° / 229.34° ASPHALT 0 ft / 0 m 190 ft / 58 m PREC-APP EDGE THRESHOLD REIL-OMNI

Map

Weather


0- 5 10 15 20 25 30 35+ Temperature / °C

Clouds and Precipitation
Forecast for 2018-12-16 06:00 UTC. Updated 5 hours ago

Ground ~20,000 ft ~40,000 ft Winds

METAR

MMHO 160742Z 13003KT 8SM BKN080 OVC100 15/03 A3010 RMK 8/07/ HZY RTS

TAF

Not found

Frequencies

Recorded 127.70 MHz ATIS
Approach 121.40 MHz Hermosillo Approach
Tower 118.70 MHz Hermosillo Tower
Warning: Do not use this data for real-world aviation or navigation. No guarantee of current accuracy is given.